sensor_id;sensor_type;location;lat;lon;timestamp;pressure;altitude;pressure_sealevel;temperature;humidity
58739;BME280;44512;53.046;18.604;2023-05-16T00:05:00;100537.57;;;14.92;69.46
58739;BME280;44512;53.046;18.604;2023-05-16T00:15:28;100549.18;;;14.87;69.34
58739;BME280;44512;53.046;18.604;2023-05-16T00:25:56;100531.87;;;14.81;69.15
58739;BME280;44512;53.046;18.604;2023-05-16T00:36:25;100535.28;;;14.77;69.06
58739;BME280;44512;53.046;18.604;2023-05-16T00:46:53;100534.08;;;14.73;68.92
58739;BME280;44512;53.046;18.604;2023-05-16T00:57:22;100537.73;;;14.67;68.87
58739;BME280;44512;53.046;18.604;2023-05-16T01:07:50;100544.71;;;14.63;68.81
58739;BME280;44512;53.046;18.604;2023-05-16T01:39:24;100562.13;;;14.43;68.43
58739;BME280;44512;53.046;18.604;2023-05-16T02:00:12;100570.38;;;14.37;68.48
58739;BME280;44512;53.046;18.604;2023-05-16T02:10:40;100581.49;;;14.35;68.50
58739;BME280;44512;53.046;18.604;2023-05-16T02:21:08;100598.32;;;14.32;68.61
58739;BME280;44512;53.046;18.604;2023-05-16T02:31:37;100602.30;;;14.29;68.66
58739;BME280;44512;53.046;18.604;2023-05-16T02:42:06;100600.74;;;14.22;68.61
58739;BME280;44512;53.046;18.604;2023-05-16T02:52:33;100616.92;;;14.17;68.74
58739;BME280;44512;53.046;18.604;2023-05-16T03:03:02;100635.81;;;14.12;68.80
58739;BME280;44512;53.046;18.604;2023-05-16T03:13:30;100652.59;;;14.08;68.77
58739;BME280;44512;53.046;18.604;2023-05-16T03:24:03;100666.03;;;14.03;68.86
58739;BME280;44512;53.046;18.604;2023-05-16T03:34:27;100677.36;;;14.00;68.77
58739;BME280;44512;53.046;18.604;2023-05-16T03:44:55;100678.89;;;13.96;68.60
58739;BME280;44512;53.046;18.604;2023-05-16T03:55:24;100682.04;;;13.93;68.46
58739;BME280;44512;53.046;18.604;2023-05-16T04:05:53;100707.59;;;13.92;68.56
58739;BME280;44512;53.046;18.604;2023-05-16T04:16:20;100714.30;;;13.90;68.56
58739;BME280;44512;53.046;18.604;2023-05-16T04:26:49;100744.46;;;13.88;68.63
58739;BME280;44512;53.046;18.604;2023-05-16T04:37:17;100759.55;;;13.84;68.61
58739;BME280;44512;53.046;18.604;2023-05-16T04:47:46;100783.84;;;13.86;68.71
58739;BME280;44512;53.046;18.604;2023-05-16T04:58:14;100807.27;;;13.87;68.58
58739;BME280;44512;53.046;18.604;2023-05-16T05:08:42;100838.03;;;13.87;68.39
58739;BME280;44512;53.046;18.604;2023-05-16T05:19:11;100851.18;;;13.90;68.35
58739;BME280;44512;53.046;18.604;2023-05-16T05:29:39;100881.73;;;13.92;68.12
58739;BME280;44512;53.046;18.604;2023-05-16T05:40:08;100889.90;;;13.92;67.93
58739;BME280;44512;53.046;18.604;2023-05-16T05:50:36;100896.78;;;13.95;67.83
58739;BME280;44512;53.046;18.604;2023-05-16T06:01:04;100913.09;;;14.01;67.73
58739;BME280;44512;53.046;18.604;2023-05-16T06:11:33;100916.00;;;14.06;67.47
58739;BME280;44512;53.046;18.604;2023-05-16T06:22:01;100924.71;;;14.15;67.11
58739;BME280;44512;53.046;18.604;2023-05-16T06:32:29;100945.59;;;14.28;66.93
58739;BME280;44512;53.046;18.604;2023-05-16T06:42:58;100965.60;;;14.40;66.50
58739;BME280;44512;53.046;18.604;2023-05-16T06:53:26;100991.95;;;14.46;65.58
58739;BME280;44512;53.046;18.604;2023-05-16T07:03:54;101012.47;;;14.55;65.62
58739;BME280;44512;53.046;18.604;2023-05-16T07:14:23;101028.74;;;14.69;65.53
58739;BME280;44512;53.046;18.604;2023-05-16T07:24:51;101033.70;;;14.78;65.34
58739;BME280;44512;53.046;18.604;2023-05-16T07:35:19;101070.96;;;14.84;64.63
58739;BME280;44512;53.046;18.604;2023-05-16T07:45:48;101095.21;;;14.93;64.76
58739;BME280;44512;53.046;18.604;2023-05-16T07:56:16;101104.86;;;14.95;63.80
58739;BME280;44512;53.046;18.604;2023-05-16T08:06:45;101133.35;;;14.99;63.66
58739;BME280;44512;53.046;18.604;2023-05-16T08:17:13;101125.35;;;15.04;63.18
58739;BME280;44512;53.046;18.604;2023-05-16T08:27:41;101101.59;;;15.11;62.99
58739;BME280;44512;53.046;18.604;2023-05-16T08:38:10;101132.76;;;15.22;62.49
58739;BME280;44512;53.046;18.604;2023-05-16T08:48:41;101145.44;;;15.35;62.17
58739;BME280;44512;53.046;18.604;2023-05-16T08:59:07;101156.49;;;15.47;60.86
58739;BME280;44512;53.046;18.604;2023-05-16T09:09:35;101154.30;;;15.55;61.00
58739;BME280;44512;53.046;18.604;2023-05-16T09:20:10;101139.98;;;15.67;60.96
58739;BME280;44512;53.046;18.604;2023-05-16T09:30:32;101171.77;;;15.79;60.47
58739;BME280;44512;53.046;18.604;2023-05-16T09:41:01;101197.33;;;15.85;59.77
58739;BME280;44512;53.046;18.604;2023-05-16T09:51:28;101190.98;;;15.91;60.06
58739;BME280;44512;53.046;18.604;2023-05-16T10:01:57;101193.19;;;16.01;60.02
58739;BME280;44512;53.046;18.604;2023-05-16T10:12:29;101206.48;;;16.15;59.19
58739;BME280;44512;53.046;18.604;2023-05-16T10:22:55;101228.81;;;16.31;58.76
58739;BME280;44512;53.046;18.604;2023-05-16T10:33:22;101246.13;;;16.43;58.09
58739;BME280;44512;53.046;18.604;2023-05-16T10:43:57;101240.37;;;16.51;57.37
58739;BME280;44512;53.046;18.604;2023-05-16T10:54:18;101251.77;;;16.66;56.12
58739;BME280;44512;53.046;18.604;2023-05-16T11:04:51;101248.88;;;16.80;55.50
58739;BME280;44512;53.046;18.604;2023-05-16T11:25:49;101275.92;;;17.06;55.11
58739;BME280;44512;53.046;18.604;2023-05-16T11:36:12;101303.09;;;17.19;53.55
58739;BME280;44512;53.046;18.604;2023-05-16T11:46:40;101305.66;;;17.33;53.23
58739;BME280;44512;53.046;18.604;2023-05-16T11:57:08;101317.97;;;17.42;52.96
58739;BME280;44512;53.046;18.604;2023-05-16T12:07:37;101329.65;;;17.49;52.97
58739;BME280;44512;53.046;18.604;2023-05-16T12:18:05;101328.71;;;17.55;52.61
58739;BME280;44512;53.046;18.604;2023-05-16T12:28:35;101339.35;;;17.63;52.26
58739;BME280;44512;53.046;18.604;2023-05-16T12:39:02;101348.29;;;17.70;51.55
58739;BME280;44512;53.046;18.604;2023-05-16T12:49:32;101362.15;;;17.76;51.37
58739;BME280;44512;53.046;18.604;2023-05-16T12:59:59;101365.86;;;17.81;51.73
58739;BME280;44512;53.046;18.604;2023-05-16T13:10:27;101374.21;;;17.86;52.01
58739;BME280;44512;53.046;18.604;2023-05-16T13:20:55;101367.79;;;17.92;52.07
58739;BME280;44512;53.046;18.604;2023-05-16T13:31:24;101373.79;;;18.01;52.10
58739;BME280;44512;53.046;18.604;2023-05-16T13:41:52;101386.54;;;18.07;51.75
58739;BME280;44512;53.046;18.604;2023-05-16T13:52:20;101380.61;;;18.10;52.95
58739;BME280;44512;53.046;18.604;2023-05-16T14:02:49;101380.25;;;18.18;54.05
58739;BME280;44512;53.046;18.604;2023-05-16T14:13:17;101377.30;;;18.32;54.78
58739;BME280;44512;53.046;18.604;2023-05-16T14:23:45;101380.55;;;18.52;54.00
58739;BME280;44512;53.046;18.604;2023-05-16T14:34:14;101383.04;;;18.65;53.11
58739;BME280;44512;53.046;18.604;2023-05-16T14:49:57;101398.34;;;18.85;54.29
58739;BME280;44512;53.046;18.604;2023-05-16T15:00:25;101388.58;;;18.89;54.19
58739;BME280;44512;53.046;18.604;2023-05-16T15:10:53;101405.86;;;18.89;53.92
58739;BME280;44512;53.046;18.604;2023-05-16T15:21:22;101404.45;;;18.87;53.73
58739;BME280;44512;53.046;18.604;2023-05-16T15:31:50;101396.45;;;18.85;53.85
58739;BME280;44512;53.046;18.604;2023-05-16T15:42:18;101411.48;;;18.83;53.78
58739;BME280;44512;53.046;18.604;2023-05-16T15:52:47;101415.64;;;18.73;54.01
58739;BME280;44512;53.046;18.604;2023-05-16T16:03:15;101419.30;;;18.67;54.42
58739;BME280;44512;53.046;18.604;2023-05-16T16:13:43;101414.29;;;18.64;54.76
58739;BME280;44512;53.046;18.604;2023-05-16T16:24:12;101423.59;;;18.63;54.38
58739;BME280;44512;53.046;18.604;2023-05-16T16:34:40;101420.72;;;18.58;53.92
58739;BME280;44512;53.046;18.604;2023-05-16T16:45:09;101437.63;;;18.55;54.01
58739;BME280;44512;53.046;18.604;2023-05-16T16:55:37;101452.28;;;18.49;53.47
58739;BME280;44512;53.046;18.604;2023-05-16T17:06:05;101457.63;;;18.44;53.28
58739;BME280;44512;53.046;18.604;2023-05-16T17:16:33;101461.91;;;18.40;53.18
58739;BME280;44512;53.046;18.604;2023-05-16T17:27:02;101464.52;;;18.35;53.27
58739;BME280;44512;53.046;18.604;2023-05-16T17:37:31;101471.77;;;18.29;53.48
58739;BME280;44512;53.046;18.604;2023-05-16T17:47:59;101494.63;;;18.23;53.70
58739;BME280;44512;53.046;18.604;2023-05-16T17:58:27;101496.64;;;18.16;53.89
58739;BME280;44512;53.046;18.604;2023-05-16T18:08:55;101507.46;;;18.11;54.00
58739;BME280;44512;53.046;18.604;2023-05-16T18:19:24;101516.81;;;18.03;54.13
58739;BME280;44512;53.046;18.604;2023-05-16T18:29:52;101535.84;;;17.98;54.43
58739;BME280;44512;53.046;18.604;2023-05-16T18:40:21;101538.08;;;17.89;54.90
58739;BME280;44512;53.046;18.604;2023-05-16T18:50:49;101553.52;;;17.84;55.31
58739;BME280;44512;53.046;18.604;2023-05-16T19:01:17;101578.72;;;17.67;55.30
58739;BME280;44512;53.046;18.604;2023-05-16T19:11:46;101592.71;;;17.59;54.93
58739;BME280;44512;53.046;18.604;2023-05-16T19:22:14;101585.92;;;17.43;54.75
58739;BME280;44512;53.046;18.604;2023-05-16T19:32:43;101594.87;;;17.32;54.85
58739;BME280;44512;53.046;18.604;2023-05-16T19:43:11;101618.92;;;17.24;54.93
58739;BME280;44512;53.046;18.604;2023-05-16T19:53:39;101622.98;;;17.14;55.01
58739;BME280;44512;53.046;18.604;2023-05-16T20:04:07;101636.49;;;17.09;55.21
58739;BME280;44512;53.046;18.604;2023-05-16T20:14:36;101629.61;;;17.00;55.12
58739;BME280;44512;53.046;18.604;2023-05-16T20:25:05;101619.38;;;16.89;54.60
58739;BME280;44512;53.046;18.604;2023-05-16T20:35:33;101633.33;;;16.81;54.32
58739;BME280;44512;53.046;18.604;2023-05-16T20:46:01;101633.58;;;16.73;54.06
58739;BME280;44512;53.046;18.604;2023-05-16T20:56:29;101648.51;;;16.63;53.74
58739;BME280;44512;53.046;18.604;2023-05-16T21:06:58;101647.11;;;16.54;53.28
58739;BME280;44512;53.046;18.604;2023-05-16T21:17:26;101656.60;;;16.45;53.17
58739;BME280;44512;53.046;18.604;2023-05-16T21:27:54;101662.94;;;16.39;53.23
58739;BME280;44512;53.046;18.604;2023-05-16T21:38:23;101661.70;;;16.35;53.41
58739;BME280;44512;53.046;18.604;2023-05-16T21:48:51;101670.53;;;16.30;53.90
58739;BME280;44512;53.046;18.604;2023-05-16T21:59:20;101684.83;;;16.26;54.42
58739;BME280;44512;53.046;18.604;2023-05-16T22:09:48;101697.45;;;16.20;55.14
58739;BME280;44512;53.046;18.604;2023-05-16T22:20:16;101701.88;;;16.14;55.83
58739;BME280;44512;53.046;18.604;2023-05-16T22:30:45;101698.53;;;16.06;56.64
58739;BME280;44512;53.046;18.604;2023-05-16T22:41:13;101711.78;;;15.96;57.12
58739;BME280;44512;53.046;18.604;2023-05-16T22:51:41;101708.02;;;15.83;57.66
58739;BME280;44512;53.046;18.604;2023-05-16T23:02:10;101710.95;;;15.75;58.48
58739;BME280;44512;53.046;18.604;2023-05-16T23:12:38;101710.53;;;15.65;58.93
58739;BME280;44512;53.046;18.604;2023-05-16T23:23:06;101710.91;;;15.55;59.19
58739;BME280;44512;53.046;18.604;2023-05-16T23:33:35;101702.95;;;15.47;59.33
58739;BME280;44512;53.046;18.604;2023-05-16T23:44:03;101698.34;;;15.41;59.56
58739;BME280;44512;53.046;18.604;2023-05-16T23:54:32;101702.93;;;15.34;60.14
